Time;durP1;ratioP1;P1;durP2;ratioP2;P2;SDS_P1;SDS_P2;PMS_P1;PMS_P2;Temp;Humidity;BMP_temperature;BMP_pressure;BME280_temperature;BME280_humidity;BME280_pressure;Samples;Min_cycle;Max_cycle;Signal;HPM_P1;HPM_P2
2021/07/10 00:04:45;;;;;;;7.63;5.95;;;22.80;64.20;;;;;;15552183;28;20033;-67
2021/07/10 00:12:16;;;;;;;6.53;5.20;;;22.80;64.10;;;;;;15569268;28;20022;-67
2021/07/10 00:19:49;;;;;;;7.57;5.10;;;22.80;64.10;;;;;;15568789;28;20399;-67
2021/07/10 00:27:19;;;;;;;7.93;5.53;;;22.80;64.00;;;;;;15568605;28;20464;-67
2021/07/10 00:34:50;;;;;;;6.17;4.83;;;22.90;64.00;;;;;;15568113;28;20034;-67
2021/07/10 00:42:22;;;;;;;6.57;5.17;;;22.80;64.00;;;;;;15549844;28;20530;-67
2021/07/10 00:49:52;;;;;;;5.63;4.40;;;22.80;63.90;;;;;;15549448;28;20029;-67
2021/07/10 00:57:23;;;;;;;8.13;5.07;;;22.80;63.70;;;;;;15549183;28;20032;-67
2021/07/10 01:04:53;;;;;;;6.67;4.60;;;22.80;63.70;;;;;;15566213;28;20475;-67
2021/07/10 01:12:24;;;;;;;6.10;4.57;;;22.80;63.60;;;;;;15565663;28;20437;-67
2021/07/10 01:20:06;;;;;;;8.27;4.85;;;22.80;63.60;;;;;;15565835;28;20042;-67
2021/07/10 01:27:37;;;;;;;8.15;4.85;;;22.80;63.40;;;;;;15547183;28;20061;-67
2021/07/10 03:07:12;;;;;;;7.05;4.57;;;22.80;62.60;;;;;;15818158;23;20074;-72
2021/07/10 03:14:43;;;;;;;5.70;4.65;;;22.80;62.50;;;;;;15466922;23;20043;-70
2021/07/10 03:22:14;;;;;;;5.93;4.47;;;22.70;62.50;;;;;;15451505;28;20027;-70
2021/07/10 03:29:44;;;;;;;6.53;4.20;;;22.70;62.50;;;;;;15449059;28;20570;-70
2021/07/10 03:37:14;;;;;;;5.30;4.30;;;22.70;62.40;;;;;;15450212;28;20038;-70
2021/07/10 03:44:46;;;;;;;5.13;4.40;;;22.70;62.30;;;;;;15449539;28;20110;-70
2021/07/10 03:52:16;;;;;;;6.65;4.50;;;22.70;62.30;;;;;;15447964;28;20046;-70
2021/07/10 03:59:47;;;;;;;6.40;4.57;;;22.70;62.30;;;;;;15448903;28;20023;-70
2021/07/10 04:07:18;;;;;;;6.03;4.23;;;22.70;62.30;;;;;;15447536;28;20067;-70
2021/07/10 04:14:48;;;;;;;7.82;4.82;;;22.70;62.30;;;;;;15447726;28;20465;-71
2021/07/10 04:22:19;;;;;;;6.23;4.63;;;22.70;62.30;;;;;;15447547;28;20370;-70
2021/07/10 04:29:49;;;;;;;8.10;4.70;;;22.70;62.30;;;;;;15447041;28;20492;-70
2021/07/10 04:37:20;;;;;;;6.47;5.05;;;22.70;62.30;;;;;;15445429;28;20030;-70
2021/07/10 04:44:51;;;;;;;8.25;4.68;;;22.70;62.30;;;;;;15444919;28;20058;-70
2021/07/10 04:52:22;;;;;;;6.10;4.60;;;22.70;62.30;;;;;;15446361;28;20026;-71
2021/07/10 04:59:52;;;;;;;7.05;4.70;;;22.70;62.20;;;;;;15444222;28;20027;-70
2021/07/10 05:07:23;;;;;;;6.87;4.53;;;22.70;62.30;;;;;;15445165;28;20089;-70
2021/07/10 05:14:54;;;;;;;6.15;4.85;;;22.70;62.30;;;;;;15443210;28;20474;-70
2021/07/10 05:22:25;;;;;;;6.07;4.63;;;22.70;62.30;;;;;;15444391;28;20027;-70
2021/07/10 05:29:55;;;;;;;6.57;4.87;;;22.70;62.20;;;;;;15442378;28;20546;-70
2021/07/10 05:37:26;;;;;;;7.67;4.83;;;22.70;62.20;;;;;;15441939;28;20809;-70
2021/07/10 05:44:56;;;;;;;5.90;5.03;;;22.70;62.30;;;;;;15442778;28;20467;-70
2021/07/10 05:52:27;;;;;;;7.55;5.78;;;22.70;62.40;;;;;;15442439;28;20990;-70
2021/07/10 05:59:57;;;;;;;6.87;5.60;;;22.70;62.30;;;;;;15441921;28;20031;-70
2021/07/10 06:07:28;;;;;;;6.07;5.05;;;22.70;62.30;;;;;;15439818;28;20121;-70
2021/07/10 06:14:58;;;;;;;6.33;4.83;;;22.70;62.50;;;;;;15441192;28;20086;-71
2021/07/10 06:22:29;;;;;;;6.63;5.53;;;22.70;62.50;;;;;;15440988;28;20031;-70
2021/07/10 06:29:59;;;;;;;9.00;5.73;;;22.70;62.60;;;;;;15439106;28;20031;-70
2021/07/10 06:37:30;;;;;;;6.50;5.50;;;22.70;62.60;;;;;;15440476;28;20445;-70
2021/07/10 06:45:00;;;;;;;6.83;5.40;;;22.70;62.70;;;;;;15440261;28;20039;-70
2021/07/10 06:52:31;;;;;;;7.47;6.00;;;22.70;62.80;;;;;;15440092;28;20423;-70
2021/07/10 07:00:05;;;;;;;11.27;6.03;;;22.70;63.10;;;;;;15439752;28;20484;-70
2021/07/10 07:07:36;;;;;;;8.33;4.67;;;22.70;63.20;;;;;;15440228;28;20446;-70
2021/07/10 07:15:08;;;;;;;6.75;4.65;;;22.70;63.20;;;;;;15439307;28;20105;-70
2021/07/10 07:22:43;;;;;;;7.22;4.57;;;22.70;63.70;;;;;;15439391;28;20030;-70
2021/07/10 07:30:14;;;;;;;9.38;8.23;;;22.80;63.90;;;;;;15439050;28;20026;-70
2021/07/10 07:37:45;;;;;;;13.13;10.25;;;22.80;63.70;;;;;;15437902;28;20054;-70
2021/07/10 07:45:18;;;;;;;13.15;9.27;;;22.80;63.20;;;;;;15444077;28;20039;-70
2021/07/10 07:52:49;;;;;;;17.80;11.70;;;22.80;63.40;;;;;;15449249;28;20027;-70
2021/07/10 08:00:23;;;;;;;15.30;10.32;;;22.80;63.10;;;;;;15448938;28;20023;-71
2021/07/10 08:07:54;;;;;;;13.93;8.87;;;22.80;62.90;;;;;;15448447;28;20050;-70
2021/07/10 08:15:24;;;;;;;14.18;10.35;;;22.80;63.40;;;;;;15447777;28;20425;-70
2021/07/10 08:22:55;;;;;;;19.15;10.55;;;22.80;62.90;;;;;;15447456;28;20155;-70
2021/07/10 08:30:27;;;;;;;12.05;10.18;;;22.90;63.00;;;;;;15446013;28;20019;-72
2021/07/10 08:37:57;;;;;;;18.67;9.95;;;22.80;61.90;;;;;;15447295;28;20137;-72
